Aérodrome :
LOGIN :

S'inscrire | Disclaimer

   EN    FR    IT 

 










Légende :    VFR   VFR Marginal   IFR   IFR Intensif   IFR Très Intensif
Visi : 
Plafond : 
>= 8 km
>= 3000ft
5 à 8 km
1000 à 3000 ft
1500m à 5 km
500 à 1000 ft
800 à 1500m
200 à 500 ft
< 800m
< 200 ft
Symboles :   Orages  Brouillard  Fortes neiges  Fortes précipitations  Vent > 20 kt
SIGMETs :   Divers  Orages  Givrage  Turbulence  Onde Orograph.  Cendres Volcan.






- Altitude de l'aérodrome : 755 ft
- Code IATA : DRS


EDDC - Dresden Klotzsche

DERNIER METAR :
  • 210650Z 27010KT 240V320 9999 FEW018 BKN030 03/M00 Q1019 TEMPO 29015G25KT

METARs EXPIRÉS :
  • 210620Z 28012KT 250V320 9999 SCT020 BKN028 04/01 Q1018 TEMPO 29015G25KT
  • 210550Z 29015G27KT 260V320 9999 -SHRA SCT012 BKN031 04/00 Q1018 TEMPO BKN012
  • 210520Z 29016G28KT 260V320 9999 OVC021 04/01 Q1017 NOSIG
  • 210450Z 30020G31KT 270V330 9999 SCT017 BKN023 04/01 Q1016 NOSIG
  • 210420Z 30017KT 260V330 9999 SCT016 BKN023 04/02 Q1014

TAF TAF EDDC
Valide du 21 à 06h jusqu'au 22 à 06h UTC


210500Z 2106/2206 27015G25KT 9999 SCT030
PROB30
TEMPO 2106/2108 28020G35KT BKN014
BECMG 2114/2116 22010KT



MET'MAP, la Météo Aéronautique d'un coup d'oeil ! - Copyright ORBIFLY Décembre 2007 - Disclaimer

ORBIFLY MET'MAP TEAM :

Programmation & Développement : Alexandra Zaïnal
Sur une idée originale de : Baudouin d'Aumeries
Assistance à la programmation : Marc-Olivier Méhu
Soutien technique & logistique : Manuel Goepfert

Contact : metmap@orbifly.com




SOURCES & CREDITS :

   NOAA